aviador You're here:

OJAQ Decoded Metar

AQABA in JORDAN
Report Time2017-12-11 00:00:00
UTC Time2017-12-11 00:29:25
Flight Rules vfr VFR
Wind350° at 08 kt
W.Decomp.*RWY 01: 7.4 kt HW 3.1 kt LCW
W.Rank350° ranks 2
Current wind is below 350° avg. (10.1)
Visibility9999 m
Phenomena:N/A
Clouds:N/A
Expected CloudBase > 3,600 ft AGL from Temp-Dew spread
CeilingNone
Temp11°C (ISA -4)
Dew Point02°C (54% RH)
AAT6.5°C
QNH1020 hPa
Density Alt-410 ft
Elevation167 ft
Report Wrong Elevation
Raw Report
METAR OJAQ 110000Z 35008KT CAVOK 11/02 Q1020 NOSIG=####018000099####
SASP40 LEMM 110000 CCA

Extra information for OJAQ:More info

Metar Taf Metar & Taf Last 4 Metars F.Rules Stats Wind Profile Meteogram Temp Stats Airport Information Weather charts Add Link Nearby VenuesMetar ALERT Operation Metar Decoded Social comments